sensor_id;sensor_type;location;lat;lon;timestamp;pressure;altitude;pressure_sealevel;temperature;humidity
27705;BME280;15109;50.992;6.918;2022-11-21T00:00:04;99839.78;;;7.75;100.00
27705;BME280;15109;50.992;6.918;2022-11-21T00:03:27;99837.41;;;7.72;100.00
27705;BME280;15109;50.992;6.918;2022-11-21T00:06:49;99838.91;;;7.75;100.00
27705;BME280;15109;50.992;6.918;2022-11-21T00:10:11;99833.66;;;7.73;100.00
27705;BME280;15109;50.992;6.918;2022-11-21T00:13:33;99840.41;;;7.78;100.00
27705;BME280;15109;50.992;6.918;2022-11-21T00:16:54;99833.94;;;7.79;100.00
27705;BME280;15109;50.992;6.918;2022-11-21T00:20:16;99837.22;;;7.89;100.00
27705;BME280;15109;50.992;6.918;2022-11-21T00:23:37;99844.25;;;7.83;100.00
27705;BME280;15109;50.992;6.918;2022-11-21T00:26:58;99830.38;;;7.78;100.00
27705;BME280;15109;50.992;6.918;2022-11-21T00:30:20;99843.69;;;7.73;100.00
27705;BME280;15109;50.992;6.918;2022-11-21T00:33:41;99843.50;;;7.74;100.00
27705;BME280;15109;50.992;6.918;2022-11-21T00:37:02;99843.06;;;7.71;100.00
27705;BME280;15109;50.992;6.918;2022-11-21T00:40:23;99844.09;;;7.70;100.00
27705;BME280;15109;50.992;6.918;2022-11-21T00:43:44;99852.63;;;7.67;100.00
27705;BME280;15109;50.992;6.918;2022-11-21T00:47:05;99856.44;;;7.72;100.00
27705;BME280;15109;50.992;6.918;2022-11-21T00:50:26;99851.69;;;7.74;100.00
27705;BME280;15109;50.992;6.918;2022-11-21T00:53:47;99865.28;;;7.74;100.00
27705;BME280;15109;50.992;6.918;2022-11-21T00:57:08;99866.13;;;7.75;100.00
27705;BME280;15109;50.992;6.918;2022-11-21T01:00:29;99853.84;;;7.79;100.00
27705;BME280;15109;50.992;6.918;2022-11-21T01:03:50;99865.28;;;7.74;100.00
27705;BME280;15109;50.992;6.918;2022-11-21T01:07:14;99868.47;;;7.78;100.00
27705;BME280;15109;50.992;6.918;2022-11-21T01:10:35;99863.88;;;7.79;100.00
27705;BME280;15109;50.992;6.918;2022-11-21T01:13:56;99866.53;;;7.72;100.00
27705;BME280;15109;50.992;6.918;2022-11-21T01:17:17;99865.84;;;7.70;100.00
27705;BME280;15109;50.992;6.918;2022-11-21T01:20:39;99873.84;;;7.71;100.00
27705;BME280;15109;50.992;6.918;2022-11-21T01:24:00;99877.28;;;7.65;100.00
27705;BME280;15109;50.992;6.918;2022-11-21T01:27:22;99878.53;;;7.63;100.00
27705;BME280;15109;50.992;6.918;2022-11-21T01:30:43;99870.72;;;7.60;100.00
27705;BME280;15109;50.992;6.918;2022-11-21T01:34:04;99874.97;;;7.62;100.00
27705;BME280;15109;50.992;6.918;2022-11-21T01:37:25;99889.03;;;7.66;100.00
27705;BME280;15109;50.992;6.918;2022-11-21T01:40:46;99888.34;;;7.64;100.00
27705;BME280;15109;50.992;6.918;2022-11-21T01:44:22;99880.88;;;7.66;100.00
27705;BME280;15109;50.992;6.918;2022-11-21T01:47:43;99890.16;;;7.71;100.00
27705;BME280;15109;50.992;6.918;2022-11-21T01:51:25;99884.03;;;7.69;100.00
27705;BME280;15109;50.992;6.918;2022-11-21T01:55:02;99887.22;;;7.73;100.00
27705;BME280;15109;50.992;6.918;2022-11-21T01:58:27;99876.56;;;7.71;100.00
27705;BME280;15109;50.992;6.918;2022-11-21T02:01:52;99881.31;;;7.69;100.00
27705;BME280;15109;50.992;6.918;2022-11-21T02:05:17;99883.88;;;7.71;100.00
27705;BME280;15109;50.992;6.918;2022-11-21T02:08:40;99894.28;;;7.67;100.00
27705;BME280;15109;50.992;6.918;2022-11-21T02:12:10;99895.59;;;7.71;100.00
27705;BME280;15109;50.992;6.918;2022-11-21T02:15:33;99890.72;;;7.67;100.00
27705;BME280;15109;50.992;6.918;2022-11-21T02:18:54;99894.75;;;7.71;100.00
27705;BME280;15109;50.992;6.918;2022-11-21T02:25:58;99896.97;;;7.82;100.00
27705;BME280;15109;50.992;6.918;2022-11-21T02:29:20;99893.91;;;7.85;100.00
27705;BME280;15109;50.992;6.918;2022-11-21T02:32:43;99894.09;;;7.84;100.00
27705;BME280;15109;50.992;6.918;2022-11-21T02:36:34;99897.19;;;7.81;100.00
27705;BME280;15109;50.992;6.918;2022-11-21T02:39:58;99883.31;;;7.75;100.00
27705;BME280;15109;50.992;6.918;2022-11-21T02:43:27;99898.97;;;7.73;100.00
27705;BME280;15109;50.992;6.918;2022-11-21T02:46:51;99892.88;;;7.71;100.00
27705;BME280;15109;50.992;6.918;2022-11-21T02:50:15;99899.97;;;7.72;100.00
27705;BME280;15109;50.992;6.918;2022-11-21T02:53:39;99896.91;;;7.61;100.00
27705;BME280;15109;50.992;6.918;2022-11-21T02:57:00;99899.81;;;7.59;100.00
27705;BME280;15109;50.992;6.918;2022-11-21T03:00:21;99903.75;;;7.57;100.00
27705;BME280;15109;50.992;6.918;2022-11-21T03:03:42;99898.13;;;7.58;100.00
27705;BME280;15109;50.992;6.918;2022-11-21T03:07:04;99902.72;;;7.58;100.00
27705;BME280;15109;50.992;6.918;2022-11-21T03:10:25;99899.53;;;7.54;100.00
27705;BME280;15109;50.992;6.918;2022-11-21T03:13:46;99906.66;;;7.55;100.00
27705;BME280;15109;50.992;6.918;2022-11-21T03:17:07;99915.47;;;7.57;100.00
27705;BME280;15109;50.992;6.918;2022-11-21T03:20:30;99915.31;;;7.59;100.00
27705;BME280;15109;50.992;6.918;2022-11-21T03:23:51;99899.16;;;7.57;100.00
27705;BME280;15109;50.992;6.918;2022-11-21T03:27:12;99904.44;;;7.59;100.00
27705;BME280;15109;50.992;6.918;2022-11-21T03:30:35;99901.31;;;7.62;100.00
27705;BME280;15109;50.992;6.918;2022-11-21T03:33:56;99904.22;;;7.60;100.00
27705;BME280;15109;50.992;6.918;2022-11-21T03:37:17;99914.53;;;7.65;100.00
27705;BME280;15109;50.992;6.918;2022-11-21T03:40:39;99908.16;;;7.58;100.00
27705;BME280;15109;50.992;6.918;2022-11-21T03:44:08;99905.75;;;7.63;100.00
27705;BME280;15109;50.992;6.918;2022-11-21T03:47:29;99912.84;;;7.64;100.00
27705;BME280;15109;50.992;6.918;2022-11-21T03:50:50;99907.22;;;7.65;100.00
27705;BME280;15109;50.992;6.918;2022-11-21T03:54:11;99908.91;;;7.66;100.00
27705;BME280;15109;50.992;6.918;2022-11-21T03:57:32;99908.72;;;7.68;100.00
27705;BME280;15109;50.992;6.918;2022-11-21T04:00:53;99912.56;;;7.73;100.00
27705;BME280;15109;50.992;6.918;2022-11-21T04:04:15;99914.66;;;7.71;100.00
27705;BME280;15109;50.992;6.918;2022-11-21T04:07:36;99907.22;;;7.65;100.00
27705;BME280;15109;50.992;6.918;2022-11-21T04:10:57;99912.84;;;7.64;100.00
27705;BME280;15109;50.992;6.918;2022-11-21T04:14:18;99913.06;;;7.62;100.00
27705;BME280;15109;50.992;6.918;2022-11-21T04:17:39;99914.53;;;7.65;100.00
27705;BME280;15109;50.992;6.918;2022-11-21T04:21:02;99916.63;;;7.63;100.00
27705;BME280;15109;50.992;6.918;2022-11-21T04:24:24;99913.91;;;7.63;100.00
27705;BME280;15109;50.992;6.918;2022-11-21T04:27:45;99911.34;;;7.61;100.00
27705;BME280;15109;50.992;6.918;2022-11-21T04:31:07;99915.31;;;7.59;100.00
27705;BME280;15109;50.992;6.918;2022-11-21T04:34:28;99909.19;;;7.57;100.00
27705;BME280;15109;50.992;6.918;2022-11-21T04:37:50;99916.72;;;7.55;100.00
27705;BME280;15109;50.992;6.918;2022-11-21T04:41:11;99921.66;;;7.51;100.00
27705;BME280;15109;50.992;6.918;2022-11-21T04:44:32;99905.34;;;7.51;100.00
27705;BME280;15109;50.992;6.918;2022-11-21T04:47:53;99912.66;;;7.51;100.00
27705;BME280;15109;50.992;6.918;2022-11-21T04:51:14;99905.72;;;7.48;100.00
27705;BME280;15109;50.992;6.918;2022-11-21T04:54:35;99907.97;;;7.45;100.00
27705;BME280;15109;50.992;6.918;2022-11-21T04:57:57;99918.09;;;7.51;100.00
27705;BME280;15109;50.992;6.918;2022-11-21T05:01:18;99908.56;;;7.55;100.00
27705;BME280;15109;50.992;6.918;2022-11-21T05:04:39;99909.56;;;7.54;100.00
27705;BME280;15109;50.992;6.918;2022-11-21T05:08:00;99908.34;;;7.56;100.00
27705;BME280;15109;50.992;6.918;2022-11-21T05:11:21;99921.09;;;7.56;100.00
27705;BME280;15109;50.992;6.918;2022-11-21T05:15:00;99904.44;;;7.59;100.00
27705;BME280;15109;50.992;6.918;2022-11-21T05:18:21;99911.75;;;7.58;100.00
27705;BME280;15109;50.992;6.918;2022-11-21T05:21:43;99905.84;;;7.55;100.00
27705;BME280;15109;50.992;6.918;2022-11-21T05:25:04;99888.75;;;7.61;100.00
27705;BME280;15109;50.992;6.918;2022-11-21T05:28:26;99891.38;;;7.54;100.00
27705;BME280;15109;50.992;6.918;2022-11-21T05:31:47;99880.75;;;7.59;100.00
27705;BME280;15109;50.992;6.918;2022-11-21T05:35:08;99885.38;;;7.59;100.00
27705;BME280;15109;50.992;6.918;2022-11-21T05:38:29;99880.75;;;7.59;100.00
27705;BME280;15109;50.992;6.918;2022-11-21T05:41:51;99889.13;;;7.58;100.00
27705;BME280;15109;50.992;6.918;2022-11-21T05:45:12;99896.44;;;7.57;100.00
27705;BME280;15109;50.992;6.918;2022-11-21T05:48:33;99901.88;;;7.57;100.00
27705;BME280;15109;50.992;6.918;2022-11-21T05:51:56;99903.94;;;7.55;100.00
27705;BME280;15109;50.992;6.918;2022-11-21T05:55:17;99893.53;;;7.59;100.00
27705;BME280;15109;50.992;6.918;2022-11-21T05:58:39;99893.72;;;7.57;100.00
27705;BME280;15109;50.992;6.918;2022-11-21T06:02:00;99893.72;;;7.57;100.00
27705;BME280;15109;50.992;6.918;2022-11-21T06:05:40;99897.09;;;7.59;100.00
27705;BME280;15109;50.992;6.918;2022-11-21T06:09:01;99898.59;;;7.62;100.00
27705;BME280;15109;50.992;6.918;2022-11-21T06:12:22;99889.13;;;7.58;100.00
27705;BME280;15109;50.992;6.918;2022-11-21T06:15:43;99890.06;;;7.65;100.00
27705;BME280;15109;50.992;6.918;2022-11-21T06:19:04;99891.56;;;7.67;100.00
27705;BME280;15109;50.992;6.918;2022-11-21T06:22:26;99891.94;;;7.64;100.00
27705;BME280;15109;50.992;6.918;2022-11-21T06:25:47;99880.41;;;7.62;100.00
27705;BME280;15109;50.992;6.918;2022-11-21T06:29:10;99886.69;;;7.63;100.00
27705;BME280;15109;50.992;6.918;2022-11-21T06:32:35;99890.72;;;7.67;100.00
27705;BME280;15109;50.992;6.918;2022-11-21T06:35:57;99879.16;;;7.65;100.00
27705;BME280;15109;50.992;6.918;2022-11-21T06:39:21;99876.56;;;7.71;100.00
27705;BME280;15109;50.992;6.918;2022-11-21T06:42:42;99870.84;;;7.66;100.00
27705;BME280;15109;50.992;6.918;2022-11-21T06:46:03;99884.72;;;7.71;100.00
27705;BME280;15109;50.992;6.918;2022-11-21T06:49:24;99885.06;;;7.68;100.00
27705;BME280;15109;50.992;6.918;2022-11-21T06:52:45;99884.91;;;7.70;100.00
27705;BME280;15109;50.992;6.918;2022-11-21T06:56:07;99888.94;;;7.74;100.00
27705;BME280;15109;50.992;6.918;2022-11-21T06:59:28;99890.16;;;7.71;100.00
27705;BME280;15109;50.992;6.918;2022-11-21T07:02:49;99890.16;;;7.71;100.00
27705;BME280;15109;50.992;6.918;2022-11-21T07:06:10;99896.63;;;7.70;100.00
27705;BME280;15109;50.992;6.918;2022-11-21T07:09:31;99897.66;;;7.69;100.00
27705;BME280;15109;50.992;6.918;2022-11-21T07:12:57;99894.94;;;7.69;100.00
27705;BME280;15109;50.992;6.918;2022-11-21T07:16:37;99885.47;;;7.65;100.00
27705;BME280;15109;50.992;6.918;2022-11-21T07:19:58;99880.94;;;7.72;100.00
27705;BME280;15109;50.992;6.918;2022-11-21T07:23:19;99882.00;;;7.71;100.00
27705;BME280;15109;50.992;6.918;2022-11-21T07:26:40;99873.44;;;7.74;100.00
27705;BME280;15109;50.992;6.918;2022-11-21T07:30:01;99876.00;;;7.76;100.00
27705;BME280;15109;50.992;6.918;2022-11-21T07:33:23;99882.28;;;7.77;100.00
27705;BME280;15109;50.992;6.918;2022-11-21T07:36:44;99874.47;;;7.73;100.00
27705;BME280;15109;50.992;6.918;2022-11-21T07:40:05;99874.00;;;7.70;100.00
27705;BME280;15109;50.992;6.918;2022-11-21T07:43:26;99883.66;;;7.72;100.00
27705;BME280;15109;50.992;6.918;2022-11-21T07:46:47;99887.50;;;7.78;100.00
27705;BME280;15109;50.992;6.918;2022-11-21T07:50:09;99882.75;;;7.80;100.00
27705;BME280;15109;50.992;6.918;2022-11-21T07:53:31;99868.06;;;7.81;100.00
27705;BME280;15109;50.992;6.918;2022-11-21T07:56:52;99884.91;;;7.85;100.00
27705;BME280;15109;50.992;6.918;2022-11-21T08:00:14;99885.91;;;7.84;100.00
27705;BME280;15109;50.992;6.918;2022-11-21T08:03:35;99882.75;;;7.80;100.00
27705;BME280;15109;50.992;6.918;2022-11-21T08:06:56;99866.59;;;7.79;100.00
27705;BME280;15109;50.992;6.918;2022-11-21T08:10:18;99861.16;;;7.79;100.00
27705;BME280;15109;50.992;6.918;2022-11-21T08:13:39;99852.59;;;7.82;100.00
27705;BME280;15109;50.992;6.918;2022-11-21T08:17:01;99853.25;;;7.84;100.00
27705;BME280;15109;50.992;6.918;2022-11-21T08:20:22;99857.09;;;7.89;100.00
27705;BME280;15109;50.992;6.918;2022-11-21T08:23:43;99859.63;;;7.91;100.00
27705;BME280;15109;50.992;6.918;2022-11-21T08:27:04;99872.38;;;7.90;100.00
27705;BME280;15109;50.992;6.918;2022-11-21T08:30:25;99866.31;;;7.88;100.00
27705;BME280;15109;50.992;6.918;2022-11-21T08:33:46;99869.88;;;7.89;100.00
27705;BME280;15109;50.992;6.918;2022-11-21T08:37:07;99864.03;;;7.92;100.00
27705;BME280;15109;50.992;6.918;2022-11-21T08:40:29;99866.94;;;7.90;100.00
27705;BME280;15109;50.992;6.918;2022-11-21T08:43:51;99870.06;;;7.87;100.00
27705;BME280;15109;50.992;6.918;2022-11-21T08:47:12;99865.44;;;7.88;100.00
27705;BME280;15109;50.992;6.918;2022-11-21T08:50:33;99867.16;;;7.89;100.00
27705;BME280;15109;50.992;6.918;2022-11-21T08:53:54;99860.84;;;7.88;100.00
27705;BME280;15109;50.992;6.918;2022-11-21T08:57:15;99858.72;;;7.84;100.00
27705;BME280;15109;50.992;6.918;2022-11-21T09:00:36;99864.44;;;7.89;100.00
27705;BME280;15109;50.992;6.918;2022-11-21T09:03:57;99853.53;;;7.89;100.00
27705;BME280;15109;50.992;6.918;2022-11-21T09:07:18;99849.19;;;7.94;100.00
27705;BME280;15109;50.992;6.918;2022-11-21T09:10:39;99841.28;;;7.99;100.00
27705;BME280;15109;50.992;6.918;2022-11-21T09:14:00;99828.88;;;8.11;100.00
27705;BME280;15109;50.992;6.918;2022-11-21T09:17:40;99831.72;;;8.25;100.00
27705;BME280;15109;50.992;6.918;2022-11-21T09:21:20;99822.88;;;8.37;100.00
27705;BME280;15109;50.992;6.918;2022-11-21T09:24:41;99815.56;;;8.38;100.00
27705;BME280;15109;50.992;6.918;2022-11-21T09:28:04;99824.25;;;8.48;100.00
27705;BME280;15109;50.992;6.918;2022-11-21T09:31:26;99820.56;;;8.55;100.00
27705;BME280;15109;50.992;6.918;2022-11-21T09:34:47;99822.06;;;8.58;100.00
27705;BME280;15109;50.992;6.918;2022-11-21T09:38:08;99816.84;;;8.63;100.00
27705;BME280;15109;50.992;6.918;2022-11-21T09:41:40;99823.22;;;8.70;100.00
27705;BME280;15109;50.992;6.918;2022-11-21T09:45:12;99815.91;;;8.77;100.00
27705;BME280;15109;50.992;6.918;2022-11-21T09:49:00;99812.00;;;8.86;100.00
27705;BME280;15109;50.992;6.918;2022-11-21T09:52:38;99815.25;;;8.96;100.00
27705;BME280;15109;50.992;6.918;2022-11-21T09:56:13;99808.63;;;9.12;100.00
27705;BME280;15109;50.992;6.918;2022-11-21T09:59:36;99795.75;;;9.34;100.00
27705;BME280;15109;50.992;6.918;2022-11-21T10:02:58;99801.03;;;9.35;100.00
27705;BME280;15109;50.992;6.918;2022-11-21T10:06:21;99803.69;;;9.29;100.00
27705;BME280;15109;50.992;6.918;2022-11-21T10:13:43;99788.66;;;9.39;100.00
27705;BME280;15109;50.992;6.918;2022-11-21T10:17:18;99791.63;;;9.44;100.00
27705;BME280;15109;50.992;6.918;2022-11-21T10:24:23;99768.13;;;9.43;100.00
27705;BME280;15109;50.992;6.918;2022-11-21T10:27:52;99769.13;;;9.36;100.00
27705;BME280;15109;50.992;6.918;2022-11-21T10:31:16;99763.75;;;9.49;100.00
27705;BME280;15109;50.992;6.918;2022-11-21T10:34:37;99764.34;;;9.44;100.00
27705;BME280;15109;50.992;6.918;2022-11-21T10:38:00;99768.53;;;9.47;100.00
27705;BME280;15109;50.992;6.918;2022-11-21T10:41:43;99756.53;;;9.41;100.00
27705;BME280;15109;50.992;6.918;2022-11-21T10:45:11;99745.25;;;9.51;100.00
27705;BME280;15109;50.992;6.918;2022-11-21T10:48:36;99750.97;;;9.63;100.00
27705;BME280;15109;50.992;6.918;2022-11-21T10:52:16;99738.59;;;9.67;100.00
27705;BME280;15109;50.992;6.918;2022-11-21T10:56:05;99719.53;;;9.73;100.00
27705;BME280;15109;50.992;6.918;2022-11-21T10:59:28;99726.91;;;9.79;100.00
27705;BME280;15109;50.992;6.918;2022-11-21T11:06:27;99714.91;;;9.80;100.00
27705;BME280;15109;50.992;6.918;2022-11-21T11:09:49;99701.28;;;9.87;100.00
27705;BME280;15109;50.992;6.918;2022-11-21T11:13:17;99698.59;;;10.00;100.00
27705;BME280;15109;50.992;6.918;2022-11-21T11:16:54;99679.91;;;10.36;100.00
27705;BME280;15109;50.992;6.918;2022-11-21T11:20:41;99668.72;;;10.71;100.00
27705;BME280;15109;50.992;6.918;2022-11-21T11:27:30;99657.91;;;11.09;100.00
27705;BME280;15109;50.992;6.918;2022-11-21T11:30:54;99653.34;;;10.89;100.00
27705;BME280;15109;50.992;6.918;2022-11-21T11:34:16;99653.19;;;10.65;100.00
27705;BME280;15109;50.992;6.918;2022-11-21T11:37:42;99641.63;;;10.63;100.00
27705;BME280;15109;50.992;6.918;2022-11-21T11:41:18;99632.00;;;10.47;100.00
27705;BME280;15109;50.992;6.918;2022-11-21T11:48:46;99631.16;;;10.33;100.00
27705;BME280;15109;50.992;6.918;2022-11-21T11:52:10;99614.53;;;10.41;100.00
27705;BME280;15109;50.992;6.918;2022-11-21T11:59:21;99607.00;;;10.24;100.00
27705;BME280;15109;50.992;6.918;2022-11-21T12:03:18;99596.69;;;9.99;100.00
27705;BME280;15109;50.992;6.918;2022-11-21T12:06:49;99603.41;;;9.84;100.00
27705;BME280;15109;50.992;6.918;2022-11-21T12:10:40;99590.59;;;9.78;100.00
27705;BME280;15109;50.992;6.918;2022-11-21T12:18:33;99583.88;;;9.61;100.00
27705;BME280;15109;50.992;6.918;2022-11-21T12:21:56;99580.09;;;9.62;100.00
27705;BME280;15109;50.992;6.918;2022-11-21T12:25:20;99567.47;;;9.67;100.00
27705;BME280;15109;50.992;6.918;2022-11-21T12:29:19;99562.47;;;9.71;100.00
27705;BME280;15109;50.992;6.918;2022-11-21T12:32:53;99561.00;;;9.75;100.00
27705;BME280;15109;50.992;6.918;2022-11-21T12:36:33;99552.19;;;9.66;100.00
27705;BME280;15109;50.992;6.918;2022-11-21T12:44:01;99545.00;;;9.58;100.00
27705;BME280;15109;50.992;6.918;2022-11-21T12:55:38;99522.97;;;9.73;100.00
27705;BME280;15109;50.992;6.918;2022-11-21T12:59:01;99522.34;;;9.78;100.00
27705;BME280;15109;50.992;6.918;2022-11-21T13:06:05;99505.94;;;9.97;100.00
27705;BME280;15109;50.992;6.918;2022-11-21T13:09:37;99504.28;;;9.90;100.00
27705;BME280;15109;50.992;6.918;2022-11-21T13:16:23;99491.88;;;10.00;100.00
27705;BME280;15109;50.992;6.918;2022-11-21T13:20:18;99493.78;;;10.00;100.00
27705;BME280;15109;50.992;6.918;2022-11-21T13:23:41;99481.78;;;9.94;100.00
27705;BME280;15109;50.992;6.918;2022-11-21T13:27:02;99485.59;;;9.87;100.00
27705;BME280;15109;50.992;6.918;2022-11-21T13:30:23;99475.50;;;9.81;100.00
27705;BME280;15109;50.992;6.918;2022-11-21T13:33:46;99460.00;;;9.75;100.00
27705;BME280;15109;50.992;6.918;2022-11-21T13:37:07;99456.03;;;9.71;100.00
27705;BME280;15109;50.992;6.918;2022-11-21T13:43:49;99431.00;;;9.67;100.00
27705;BME280;15109;50.992;6.918;2022-11-21T13:51:06;99425.59;;;9.61;100.00
27705;BME280;15109;50.992;6.918;2022-11-21T13:54:36;99402.72;;;9.62;100.00
27705;BME280;15109;50.992;6.918;2022-11-21T13:58:19;99410.91;;;9.62;100.00
27705;BME280;15109;50.992;6.918;2022-11-21T14:05:52;99394.91;;;9.58;100.00
27705;BME280;15109;50.992;6.918;2022-11-21T14:12:47;99381.50;;;9.50;100.00
27705;BME280;15109;50.992;6.918;2022-11-21T14:19:50;99359.50;;;9.39;100.00
27705;BME280;15109;50.992;6.918;2022-11-21T14:23:17;99355.53;;;9.28;100.00
27705;BME280;15109;50.992;6.918;2022-11-21T14:26:41;99351.34;;;9.26;100.00
27705;BME280;15109;50.992;6.918;2022-11-21T14:30:03;99346.09;;;9.11;100.00
27705;BME280;15109;50.992;6.918;2022-11-21T14:36:50;99337.28;;;9.02;100.00
27705;BME280;15109;50.992;6.918;2022-11-21T14:40:22;99335.00;;;8.99;100.00
27705;BME280;15109;50.992;6.918;2022-11-21T14:43:44;99316.53;;;8.95;100.00
27705;BME280;15109;50.992;6.918;2022-11-21T14:47:18;99306.28;;;8.84;100.00
27705;BME280;15109;50.992;6.918;2022-11-21T14:50:40;99276.91;;;8.73;100.00
27705;BME280;15109;50.992;6.918;2022-11-21T14:54:02;99265.19;;;8.65;100.00
27705;BME280;15109;50.992;6.918;2022-11-21T14:57:28;99280.91;;;8.50;100.00
27705;BME280;15109;50.992;6.918;2022-11-21T15:01:12;99276.91;;;8.46;100.00
27705;BME280;15109;50.992;6.918;2022-11-21T15:04:40;99270.00;;;8.37;100.00
27705;BME280;15109;50.992;6.918;2022-11-21T15:08:02;99244.81;;;8.29;100.00
27705;BME280;15109;50.992;6.918;2022-11-21T15:12:12;99242.97;;;8.29;100.00
27705;BME280;15109;50.992;6.918;2022-11-21T15:15:30;99238.09;;;8.25;100.00
27705;BME280;15109;50.992;6.918;2022-11-21T15:18:53;99224.72;;;8.23;100.00
27705;BME280;15109;50.992;6.918;2022-11-21T15:22:35;99218.00;;;8.19;100.00
27705;BME280;15109;50.992;6.918;2022-11-21T15:25:58;99205.03;;;8.14;100.00
27705;BME280;15109;50.992;6.918;2022-11-21T15:29:20;99211.28;;;8.08;100.00
27705;BME280;15109;50.992;6.918;2022-11-21T15:33:17;99211.28;;;8.08;100.00
27705;BME280;15109;50.992;6.918;2022-11-21T15:36:39;99206.47;;;8.04;100.00
27705;BME280;15109;50.992;6.918;2022-11-21T15:40:00;99205.63;;;8.03;100.00
27705;BME280;15109;50.992;6.918;2022-11-21T15:47:02;99192.00;;;8.03;100.00
27705;BME280;15109;50.992;6.918;2022-11-21T15:50:23;99189.53;;;8.02;100.00
27705;BME280;15109;50.992;6.918;2022-11-21T15:53:44;99187.84;;;8.01;100.00
27705;BME280;15109;50.992;6.918;2022-11-21T15:57:10;99169.63;;;8.01;100.00
27705;BME280;15109;50.992;6.918;2022-11-21T16:00:31;99173.78;;;7.91;100.00
27705;BME280;15109;50.992;6.918;2022-11-21T16:03:55;99155.81;;;7.96;100.00
27705;BME280;15109;50.992;6.918;2022-11-21T16:07:16;99155.59;;;7.98;100.00
27705;BME280;15109;50.992;6.918;2022-11-21T16:10:37;99165.22;;;7.94;100.00
27705;BME280;15109;50.992;6.918;2022-11-21T16:14:00;99154.53;;;7.99;100.00
27705;BME280;15109;50.992;6.918;2022-11-21T16:17:21;99156.22;;;7.93;100.00
27705;BME280;15109;50.992;6.918;2022-11-21T16:20:42;99139.44;;;7.90;100.00
27705;BME280;15109;50.992;6.918;2022-11-21T16:24:04;99139.69;;;7.88;100.00
27705;BME280;15109;50.992;6.918;2022-11-21T16:27:25;99145.97;;;7.89;100.00
27705;BME280;15109;50.992;6.918;2022-11-21T16:30:46;99134.44;;;7.87;100.00
27705;BME280;15109;50.992;6.918;2022-11-21T16:34:07;99125.22;;;7.81;100.00
27705;BME280;15109;50.992;6.918;2022-11-21T16:37:30;99120.41;;;7.83;100.00
27705;BME280;15109;50.992;6.918;2022-11-21T16:40:56;99123.75;;;7.92;100.00
27705;BME280;15109;50.992;6.918;2022-11-21T16:44:17;99109.75;;;7.88;100.00
27705;BME280;15109;50.992;6.918;2022-11-21T16:47:38;99099.72;;;7.89;100.00
27705;BME280;15109;50.992;6.918;2022-11-21T16:54:30;99051.75;;;7.88;100.00
27705;BME280;15109;50.992;6.918;2022-11-21T16:57:52;99051.34;;;7.91;100.00
27705;BME280;15109;50.992;6.918;2022-11-21T17:01:23;99038.75;;;7.90;100.00
27705;BME280;15109;50.992;6.918;2022-11-21T17:04:44;99025.38;;;7.88;100.00
27705;BME280;15109;50.992;6.918;2022-11-21T17:08:05;99015.75;;;7.86;100.00
27705;BME280;15109;50.992;6.918;2022-11-21T17:11:28;99011.16;;;7.86;100.00
27705;BME280;15109;50.992;6.918;2022-11-21T17:14:50;99005.94;;;7.85;100.00
27705;BME280;15109;50.992;6.918;2022-11-21T17:18:12;99023.94;;;7.79;100.00
27705;BME280;15109;50.992;6.918;2022-11-21T17:21:33;99031.25;;;7.79;100.00
27705;BME280;15109;50.992;6.918;2022-11-21T17:24:54;99039.22;;;7.80;100.00
27705;BME280;15109;50.992;6.918;2022-11-21T17:28:15;99031.91;;;7.81;100.00
27705;BME280;15109;50.992;6.918;2022-11-21T17:31:36;99027.91;;;7.77;100.00
27705;BME280;15109;50.992;6.918;2022-11-21T17:34:57;99027.50;;;7.80;100.00
27705;BME280;15109;50.992;6.918;2022-11-21T17:38:18;99027.09;;;7.76;100.00
27705;BME280;15109;50.992;6.918;2022-11-21T17:41:39;99018.91;;;7.76;100.00
27705;BME280;15109;50.992;6.918;2022-11-21T17:45:00;99020.38;;;7.72;100.00
27705;BME280;15109;50.992;6.918;2022-11-21T17:48:21;99028.53;;;7.65;100.00
27705;BME280;15109;50.992;6.918;2022-11-21T17:51:42;99016.19;;;7.69;100.00
27705;BME280;15109;50.992;6.918;2022-11-21T17:55:04;99020.81;;;7.62;100.00
27705;BME280;15109;50.992;6.918;2022-11-21T17:58:29;99015.16;;;7.57;100.00
27705;BME280;15109;50.992;6.918;2022-11-21T18:01:51;99014.72;;;7.60;100.00
27705;BME280;15109;50.992;6.918;2022-11-21T18:05:16;99003.44;;;7.57;100.00
27705;BME280;15109;50.992;6.918;2022-11-21T18:08:42;99009.06;;;7.55;100.00
27705;BME280;15109;50.992;6.918;2022-11-21T18:12:11;99019.94;;;7.55;100.00
27705;BME280;15109;50.992;6.918;2022-11-21T18:15:37;99023.50;;;7.56;100.00
27705;BME280;15109;50.992;6.918;2022-11-21T18:19:12;99011.38;;;7.58;100.00
27705;BME280;15109;50.992;6.918;2022-11-21T18:22:36;99007.84;;;7.58;100.00
27705;BME280;15109;50.992;6.918;2022-11-21T18:26:04;99017.03;;;7.63;100.00
27705;BME280;15109;50.992;6.918;2022-11-21T18:29:28;99005.72;;;7.66;100.00
27705;BME280;15109;50.992;6.918;2022-11-21T18:32:49;99008.22;;;7.68;100.00
27705;BME280;15109;50.992;6.918;2022-11-21T18:36:10;99005.09;;;7.64;100.00
27705;BME280;15109;50.992;6.918;2022-11-21T18:39:32;98993.81;;;7.67;100.00
27705;BME280;15109;50.992;6.918;2022-11-21T18:42:56;98994.84;;;7.66;100.00
27705;BME280;15109;50.992;6.918;2022-11-21T18:46:20;98972.88;;;7.68;100.00
27705;BME280;15109;50.992;6.918;2022-11-21T18:49:42;98983.53;;;7.69;100.00
27705;BME280;15109;50.992;6.918;2022-11-21T18:53:03;98977.25;;;7.69;100.00
27705;BME280;15109;50.992;6.918;2022-11-21T18:56:25;98962.81;;;7.68;100.00
27705;BME280;15109;50.992;6.918;2022-11-21T19:00:07;98958.88;;;7.71;100.00
27705;BME280;15109;50.992;6.918;2022-11-21T19:03:31;98948.63;;;7.66;100.00
27705;BME280;15109;50.992;6.918;2022-11-21T19:06:53;98930.81;;;7.70;100.00
27705;BME280;15109;50.992;6.918;2022-11-21T19:10:14;98926.81;;;7.73;100.00
27705;BME280;15109;50.992;6.918;2022-11-21T19:13:35;98927.66;;;7.73;100.00
27705;BME280;15109;50.992;6.918;2022-11-21T19:16:56;98922.88;;;7.75;100.00
27705;BME280;15109;50.992;6.918;2022-11-21T19:20:20;98922.03;;;7.75;100.00